sensor_id;sensor_type;location;lat;lon;timestamp;P1;durP1;ratioP1;P2;durP2;ratioP2
12867;SDS011;33517;49.866;8.320;2024-03-08T00:02:26;2.45;;;1.90;;
12867;SDS011;33517;49.866;8.320;2024-03-08T00:05:19;1.50;;;1.17;;
12867;SDS011;33517;49.866;8.320;2024-03-08T00:08:12;2.28;;;1.92;;
12867;SDS011;33517;49.866;8.320;2024-03-08T00:11:05;2.97;;;2.33;;
12867;SDS011;33517;49.866;8.320;2024-03-08T00:13:58;2.85;;;1.60;;
12867;SDS011;33517;49.866;8.320;2024-03-08T00:16:50;1.52;;;1.42;;
12867;SDS011;33517;49.866;8.320;2024-03-08T00:19:43;4.93;;;2.00;;
12867;SDS011;33517;49.866;8.320;2024-03-08T00:22:35;3.30;;;2.55;;
12867;SDS011;33517;49.866;8.320;2024-03-08T00:25:27;3.13;;;1.98;;
12867;SDS011;33517;49.866;8.320;2024-03-08T00:28:20;2.22;;;1.95;;
12867;SDS011;33517;49.866;8.320;2024-03-08T00:31:12;3.58;;;2.70;;
12867;SDS011;33517;49.866;8.320;2024-03-08T00:34:04;7.25;;;3.00;;
12867;SDS011;33517;49.866;8.320;2024-03-08T00:36:56;2.95;;;2.22;;
12867;SDS011;33517;49.866;8.320;2024-03-08T00:39:48;2.92;;;2.60;;
12867;SDS011;33517;49.866;8.320;2024-03-08T00:42:40;4.30;;;3.47;;
12867;SDS011;33517;49.866;8.320;2024-03-08T00:45:35;1.98;;;1.88;;
12867;SDS011;33517;49.866;8.320;2024-03-08T00:48:27;2.78;;;2.20;;
12867;SDS011;33517;49.866;8.320;2024-03-08T00:51:19;5.00;;;2.65;;
12867;SDS011;33517;49.866;8.320;2024-03-08T00:54:11;4.05;;;2.75;;
12867;SDS011;33517;49.866;8.320;2024-03-08T00:57:03;2.83;;;2.20;;
12867;SDS011;33517;49.866;8.320;2024-03-08T00:59:56;4.43;;;2.53;;
12867;SDS011;33517;49.866;8.320;2024-03-08T01:02:50;4.22;;;3.45;;
12867;SDS011;33517;49.866;8.320;2024-03-08T01:05:41;1.95;;;1.75;;
12867;SDS011;33517;49.866;8.320;2024-03-08T01:08:33;1.65;;;1.55;;
12867;SDS011;33517;49.866;8.320;2024-03-08T01:11:28;2.47;;;1.85;;
12867;SDS011;33517;49.866;8.320;2024-03-08T01:14:20;4.82;;;2.58;;
12867;SDS011;33517;49.866;8.320;2024-03-08T01:17:13;5.93;;;1.83;;
12867;SDS011;33517;49.866;8.320;2024-03-08T01:20:06;1.75;;;1.65;;
12867;SDS011;33517;49.866;8.320;2024-03-08T01:23:01;2.08;;;1.92;;
12867;SDS011;33517;49.866;8.320;2024-03-08T01:25:54;3.28;;;1.98;;
12867;SDS011;33517;49.866;8.320;2024-03-08T01:28:48;1.38;;;1.27;;
12867;SDS011;33517;49.866;8.320;2024-03-08T01:31:41;1.08;;;1.08;;
12867;SDS011;33517;49.866;8.320;2024-03-08T01:34:33;3.05;;;2.25;;
12867;SDS011;33517;49.866;8.320;2024-03-08T01:37:26;6.28;;;1.95;;
12867;SDS011;33517;49.866;8.320;2024-03-08T01:40:19;2.72;;;2.53;;
12867;SDS011;33517;49.866;8.320;2024-03-08T01:43:16;5.63;;;2.90;;
12867;SDS011;33517;49.866;8.320;2024-03-08T01:46:09;8.43;;;2.70;;
12867;SDS011;33517;49.866;8.320;2024-03-08T01:49:05;2.75;;;2.53;;
12867;SDS011;33517;49.866;8.320;2024-03-08T01:51:57;11.40;;;4.18;;
12867;SDS011;33517;49.866;8.320;2024-03-08T01:54:50;4.75;;;2.92;;
12867;SDS011;33517;49.866;8.320;2024-03-08T01:57:42;2.67;;;2.08;;
12867;SDS011;33517;49.866;8.320;2024-03-08T02:00:35;2.80;;;2.03;;
12867;SDS011;33517;49.866;8.320;2024-03-08T02:03:28;3.10;;;2.70;;
12867;SDS011;33517;49.866;8.320;2024-03-08T02:06:22;1.73;;;1.63;;
12867;SDS011;33517;49.866;8.320;2024-03-08T02:09:14;7.80;;;1.65;;
12867;SDS011;33517;49.866;8.320;2024-03-08T02:12:09;2.70;;;1.88;;
12867;SDS011;33517;49.866;8.320;2024-03-08T02:15:01;5.00;;;2.85;;
12867;SDS011;33517;49.866;8.320;2024-03-08T02:17:53;5.85;;;2.38;;
12867;SDS011;33517;49.866;8.320;2024-03-08T02:20:46;2.60;;;2.38;;
12867;SDS011;33517;49.866;8.320;2024-03-08T02:23:39;4.72;;;3.35;;
12867;SDS011;33517;49.866;8.320;2024-03-08T02:26:31;4.85;;;1.95;;
12867;SDS011;33517;49.866;8.320;2024-03-08T02:29:23;2.83;;;2.50;;
12867;SDS011;33517;49.866;8.320;2024-03-08T02:32:15;2.40;;;2.20;;
12867;SDS011;33517;49.866;8.320;2024-03-08T02:35:08;2.55;;;2.33;;
12867;SDS011;33517;49.866;8.320;2024-03-08T02:38:02;4.53;;;2.67;;
12867;SDS011;33517;49.866;8.320;2024-03-08T02:40:54;3.15;;;1.52;;
12867;SDS011;33517;49.866;8.320;2024-03-08T02:43:46;4.15;;;1.85;;
12867;SDS011;33517;49.866;8.320;2024-03-08T02:46:38;2.45;;;2.17;;
12867;SDS011;33517;49.866;8.320;2024-03-08T02:49:30;1.67;;;1.38;;
12867;SDS011;33517;49.866;8.320;2024-03-08T02:52:22;3.50;;;2.40;;
12867;SDS011;33517;49.866;8.320;2024-03-08T02:55:16;4.28;;;2.75;;
12867;SDS011;33517;49.866;8.320;2024-03-08T02:58:08;1.88;;;1.77;;
12867;SDS011;33517;49.866;8.320;2024-03-08T03:01:01;3.75;;;2.88;;
12867;SDS011;33517;49.866;8.320;2024-03-08T03:03:54;2.75;;;2.08;;
12867;SDS011;33517;49.866;8.320;2024-03-08T03:06:45;3.35;;;1.38;;
12867;SDS011;33517;49.866;8.320;2024-03-08T03:09:38;5.35;;;3.92;;
12867;SDS011;33517;49.866;8.320;2024-03-08T03:12:31;11.15;;;3.03;;
12867;SDS011;33517;49.866;8.320;2024-03-08T03:15:24;4.50;;;1.67;;
12867;SDS011;33517;49.866;8.320;2024-03-08T03:18:16;4.32;;;2.45;;
12867;SDS011;33517;49.866;8.320;2024-03-08T03:21:11;2.33;;;1.42;;
12867;SDS011;33517;49.866;8.320;2024-03-08T03:24:04;1.85;;;1.73;;
12867;SDS011;33517;49.866;8.320;2024-03-08T03:27:00;7.03;;;3.58;;
12867;SDS011;33517;49.866;8.320;2024-03-08T03:29:59;1.70;;;1.42;;
12867;SDS011;33517;49.866;8.320;2024-03-08T03:33:11;2.28;;;2.08;;
12867;SDS011;33517;49.866;8.320;2024-03-08T03:36:05;2.20;;;1.95;;
12867;SDS011;33517;49.866;8.320;2024-03-08T03:38:59;3.88;;;1.83;;
12867;SDS011;33517;49.866;8.320;2024-03-08T03:42:00;2.33;;;2.03;;
12867;SDS011;33517;49.866;8.320;2024-03-08T03:44:53;2.30;;;1.98;;
12867;SDS011;33517;49.866;8.320;2024-03-08T03:47:46;2.10;;;1.30;;
12867;SDS011;33517;49.866;8.320;2024-03-08T03:50:38;5.00;;;2.75;;
12867;SDS011;33517;49.866;8.320;2024-03-08T03:53:30;1.67;;;1.35;;
12867;SDS011;33517;49.866;8.320;2024-03-08T03:56:24;3.30;;;2.28;;
12867;SDS011;33517;49.866;8.320;2024-03-08T03:59:16;3.78;;;2.72;;
12867;SDS011;33517;49.866;8.320;2024-03-08T04:02:08;1.73;;;1.63;;
12867;SDS011;33517;49.866;8.320;2024-03-08T04:05:02;8.63;;;2.40;;
12867;SDS011;33517;49.866;8.320;2024-03-08T04:07:54;4.07;;;3.22;;
12867;SDS011;33517;49.866;8.320;2024-03-08T04:10:45;1.85;;;1.75;;
12867;SDS011;33517;49.866;8.320;2024-03-08T04:13:38;4.93;;;3.25;;
12867;SDS011;33517;49.866;8.320;2024-03-08T04:16:29;6.78;;;3.30;;
12867;SDS011;33517;49.866;8.320;2024-03-08T04:19:22;7.03;;;3.15;;
12867;SDS011;33517;49.866;8.320;2024-03-08T04:22:16;11.00;;;3.65;;
12867;SDS011;33517;49.866;8.320;2024-03-08T04:25:08;1.02;;;0.98;;
12867;SDS011;33517;49.866;8.320;2024-03-08T04:28:00;1.55;;;1.45;;
12867;SDS011;33517;49.866;8.320;2024-03-08T04:30:52;4.30;;;1.50;;
12867;SDS011;33517;49.866;8.320;2024-03-08T04:33:45;9.52;;;2.42;;
12867;SDS011;33517;49.866;8.320;2024-03-08T04:36:37;2.42;;;2.05;;
12867;SDS011;33517;49.866;8.320;2024-03-08T04:39:30;6.35;;;3.10;;
12867;SDS011;33517;49.866;8.320;2024-03-08T04:42:22;3.40;;;2.60;;
12867;SDS011;33517;49.866;8.320;2024-03-08T04:45:14;3.90;;;2.33;;
12867;SDS011;33517;49.866;8.320;2024-03-08T04:48:06;4.75;;;2.92;;
12867;SDS011;33517;49.866;8.320;2024-03-08T04:50:59;4.18;;;3.17;;
12867;SDS011;33517;49.866;8.320;2024-03-08T04:53:51;6.65;;;2.88;;
12867;SDS011;33517;49.866;8.320;2024-03-08T04:56:45;7.57;;;3.35;;
12867;SDS011;33517;49.866;8.320;2024-03-08T04:59:36;5.10;;;2.40;;
12867;SDS011;33517;49.866;8.320;2024-03-08T05:02:28;4.30;;;3.58;;
12867;SDS011;33517;49.866;8.320;2024-03-08T05:05:21;8.38;;;2.30;;
12867;SDS011;33517;49.866;8.320;2024-03-08T05:08:13;2.05;;;1.85;;
12867;SDS011;33517;49.866;8.320;2024-03-08T05:11:05;4.97;;;3.67;;
12867;SDS011;33517;49.866;8.320;2024-03-08T05:13:59;3.47;;;2.83;;
12867;SDS011;33517;49.866;8.320;2024-03-08T05:16:51;5.50;;;3.67;;
12867;SDS011;33517;49.866;8.320;2024-03-08T05:19:43;4.45;;;3.75;;
12867;SDS011;33517;49.866;8.320;2024-03-08T05:22:34;4.90;;;3.88;;
12867;SDS011;33517;49.866;8.320;2024-03-08T05:25:26;4.70;;;2.63;;
12867;SDS011;33517;49.866;8.320;2024-03-08T05:28:18;6.25;;;3.30;;
12867;SDS011;33517;49.866;8.320;2024-03-08T05:31:14;8.27;;;2.20;;
12867;SDS011;33517;49.866;8.320;2024-03-08T05:34:11;3.33;;;2.88;;
12867;SDS011;33517;49.866;8.320;2024-03-08T05:37:04;2.13;;;1.67;;
12867;SDS011;33517;49.866;8.320;2024-03-08T05:39:57;2.72;;;1.98;;
12867;SDS011;33517;49.866;8.320;2024-03-08T05:42:49;1.20;;;1.10;;
12867;SDS011;33517;49.866;8.320;2024-03-08T05:45:41;2.00;;;1.50;;
12867;SDS011;33517;49.866;8.320;2024-03-08T05:48:34;3.63;;;2.08;;
12867;SDS011;33517;49.866;8.320;2024-03-08T05:51:26;2.45;;;2.05;;
12867;SDS011;33517;49.866;8.320;2024-03-08T05:54:18;3.95;;;1.63;;
12867;SDS011;33517;49.866;8.320;2024-03-08T05:57:12;2.65;;;1.33;;
12867;SDS011;33517;49.866;8.320;2024-03-08T06:00:04;2.85;;;2.13;;
12867;SDS011;33517;49.866;8.320;2024-03-08T06:02:57;2.10;;;2.00;;
12867;SDS011;33517;49.866;8.320;2024-03-08T06:05:50;2.50;;;2.30;;
12867;SDS011;33517;49.866;8.320;2024-03-08T06:08:42;2.58;;;1.77;;
12867;SDS011;33517;49.866;8.320;2024-03-08T06:11:34;1.75;;;1.65;;
12867;SDS011;33517;49.866;8.320;2024-03-08T06:14:27;3.05;;;2.10;;
12867;SDS011;33517;49.866;8.320;2024-03-08T06:17:19;6.13;;;2.35;;
12867;SDS011;33517;49.866;8.320;2024-03-08T06:20:15;1.45;;;1.33;;
12867;SDS011;33517;49.866;8.320;2024-03-08T06:23:09;3.38;;;2.50;;
12867;SDS011;33517;49.866;8.320;2024-03-08T06:26:00;2.45;;;2.10;;
12867;SDS011;33517;49.866;8.320;2024-03-08T06:28:53;6.07;;;3.20;;
12867;SDS011;33517;49.866;8.320;2024-03-08T06:31:45;1.17;;;1.13;;
12867;SDS011;33517;49.866;8.320;2024-03-08T06:34:37;2.17;;;1.98;;
12867;SDS011;33517;49.866;8.320;2024-03-08T06:37:29;5.05;;;2.38;;
12867;SDS011;33517;49.866;8.320;2024-03-08T06:40:23;2.17;;;1.63;;
12867;SDS011;33517;49.866;8.320;2024-03-08T06:43:15;3.97;;;3.67;;
12867;SDS011;33517;49.866;8.320;2024-03-08T06:46:08;4.28;;;2.30;;
12867;SDS011;33517;49.866;8.320;2024-03-08T06:49:00;2.47;;;1.55;;
12867;SDS011;33517;49.866;8.320;2024-03-08T06:51:53;2.05;;;1.90;;
12867;SDS011;33517;49.866;8.320;2024-03-08T06:54:45;3.85;;;2.47;;
12867;SDS011;33517;49.866;8.320;2024-03-08T06:57:39;6.82;;;4.15;;
12867;SDS011;33517;49.866;8.320;2024-03-08T07:00:31;3.75;;;2.38;;
12867;SDS011;33517;49.866;8.320;2024-03-08T07:03:23;7.15;;;2.28;;
12867;SDS011;33517;49.866;8.320;2024-03-08T07:06:16;7.30;;;3.78;;
12867;SDS011;33517;49.866;8.320;2024-03-08T07:09:09;8.05;;;3.10;;
12867;SDS011;33517;49.866;8.320;2024-03-08T07:12:02;5.22;;;3.38;;
12867;SDS011;33517;49.866;8.320;2024-03-08T07:14:55;5.82;;;2.78;;
12867;SDS011;33517;49.866;8.320;2024-03-08T07:17:47;5.63;;;4.05;;
12867;SDS011;33517;49.866;8.320;2024-03-08T07:20:39;8.32;;;3.50;;
12867;SDS011;33517;49.866;8.320;2024-03-08T07:23:31;9.40;;;4.40;;
12867;SDS011;33517;49.866;8.320;2024-03-08T07:26:54;6.82;;;4.22;;
12867;SDS011;33517;49.866;8.320;2024-03-08T07:29:46;5.43;;;4.15;;
12867;SDS011;33517;49.866;8.320;2024-03-08T07:32:40;4.82;;;3.03;;
12867;SDS011;33517;49.866;8.320;2024-03-08T07:35:31;5.78;;;4.63;;
12867;SDS011;33517;49.866;8.320;2024-03-08T07:38:24;5.90;;;3.72;;
12867;SDS011;33517;49.866;8.320;2024-03-08T07:41:16;5.55;;;3.40;;
12867;SDS011;33517;49.866;8.320;2024-03-08T07:44:07;7.70;;;3.72;;
12867;SDS011;33517;49.866;8.320;2024-03-08T07:46:59;4.57;;;3.95;;
12867;SDS011;33517;49.866;8.320;2024-03-08T07:49:53;5.47;;;3.78;;
12867;SDS011;33517;49.866;8.320;2024-03-08T07:52:45;6.25;;;4.13;;
12867;SDS011;33517;49.866;8.320;2024-03-08T07:55:38;4.70;;;3.35;;
12867;SDS011;33517;49.866;8.320;2024-03-08T07:58:32;7.05;;;4.90;;
12867;SDS011;33517;49.866;8.320;2024-03-08T08:01:24;10.65;;;5.07;;
12867;SDS011;33517;49.866;8.320;2024-03-08T08:04:16;7.35;;;4.78;;
12867;SDS011;33517;49.866;8.320;2024-03-08T08:07:10;7.20;;;3.83;;
12867;SDS011;33517;49.866;8.320;2024-03-08T08:10:02;7.75;;;4.82;;
12867;SDS011;33517;49.866;8.320;2024-03-08T08:12:56;10.50;;;4.32;;
12867;SDS011;33517;49.866;8.320;2024-03-08T08:15:48;8.43;;;4.40;;
12867;SDS011;33517;49.866;8.320;2024-03-08T08:18:40;8.18;;;5.25;;
12867;SDS011;33517;49.866;8.320;2024-03-08T08:21:33;7.72;;;5.43;;
12867;SDS011;33517;49.866;8.320;2024-03-08T08:24:26;7.88;;;3.60;;
12867;SDS011;33517;49.866;8.320;2024-03-08T08:27:18;6.38;;;4.05;;
12867;SDS011;33517;49.866;8.320;2024-03-08T08:30:11;10.68;;;5.05;;
12867;SDS011;33517;49.866;8.320;2024-03-08T08:33:04;8.98;;;5.82;;
12867;SDS011;33517;49.866;8.320;2024-03-08T08:35:56;10.23;;;6.22;;
12867;SDS011;33517;49.866;8.320;2024-03-08T08:38:48;6.07;;;4.10;;
12867;SDS011;33517;49.866;8.320;2024-03-08T08:41:42;6.25;;;4.63;;
12867;SDS011;33517;49.866;8.320;2024-03-08T08:44:33;10.82;;;5.82;;
12867;SDS011;33517;49.866;8.320;2024-03-08T08:47:25;10.27;;;5.22;;
12867;SDS011;33517;49.866;8.320;2024-03-08T08:50:17;9.65;;;5.40;;
12867;SDS011;33517;49.866;8.320;2024-03-08T08:53:13;8.60;;;5.00;;
12867;SDS011;33517;49.866;8.320;2024-03-08T08:56:06;9.00;;;4.45;;
12867;SDS011;33517;49.866;8.320;2024-03-08T08:58:59;14.65;;;6.85;;
12867;SDS011;33517;49.866;8.320;2024-03-08T09:01:51;7.65;;;5.28;;
12867;SDS011;33517;49.866;8.320;2024-03-08T09:04:44;10.02;;;5.90;;
12867;SDS011;33517;49.866;8.320;2024-03-08T09:07:36;9.73;;;5.70;;
12867;SDS011;33517;49.866;8.320;2024-03-08T09:10:27;7.88;;;5.50;;
12867;SDS011;33517;49.866;8.320;2024-03-08T09:13:19;10.10;;;6.03;;
12867;SDS011;33517;49.866;8.320;2024-03-08T09:16:13;7.38;;;4.60;;
12867;SDS011;33517;49.866;8.320;2024-03-08T09:19:05;11.75;;;5.72;;
12867;SDS011;33517;49.866;8.320;2024-03-08T09:21:57;7.10;;;4.47;;
12867;SDS011;33517;49.866;8.320;2024-03-08T09:24:49;9.60;;;5.47;;
12867;SDS011;33517;49.866;8.320;2024-03-08T09:27:41;7.53;;;5.05;;
12867;SDS011;33517;49.866;8.320;2024-03-08T09:30:33;8.43;;;5.07;;
12867;SDS011;33517;49.866;8.320;2024-03-08T09:33:27;7.60;;;4.82;;
12867;SDS011;33517;49.866;8.320;2024-03-08T09:36:19;9.18;;;4.65;;
12867;SDS011;33517;49.866;8.320;2024-03-08T09:39:11;9.68;;;4.30;;
12867;SDS011;33517;49.866;8.320;2024-03-08T09:42:07;7.32;;;4.88;;
12867;SDS011;33517;49.866;8.320;2024-03-08T09:44:59;10.00;;;5.70;;
12867;SDS011;33517;49.866;8.320;2024-03-08T09:47:50;7.43;;;5.13;;
12867;SDS011;33517;49.866;8.320;2024-03-08T09:50:44;7.65;;;5.15;;
12867;SDS011;33517;49.866;8.320;2024-03-08T09:53:37;10.88;;;5.35;;
12867;SDS011;33517;49.866;8.320;2024-03-08T09:56:29;11.38;;;5.38;;
12867;SDS011;33517;49.866;8.320;2024-03-08T09:59:23;10.60;;;4.88;;
12867;SDS011;33517;49.866;8.320;2024-03-08T10:02:32;8.10;;;4.18;;
12867;SDS011;33517;49.866;8.320;2024-03-08T10:05:26;11.65;;;5.00;;
12867;SDS011;33517;49.866;8.320;2024-03-08T10:08:19;8.70;;;5.32;;
12867;SDS011;33517;49.866;8.320;2024-03-08T10:11:11;7.45;;;5.00;;
12867;SDS011;33517;49.866;8.320;2024-03-08T10:14:03;8.05;;;5.45;;
12867;SDS011;33517;49.866;8.320;2024-03-08T10:16:56;7.35;;;4.55;;
12867;SDS011;33517;49.866;8.320;2024-03-08T10:19:50;5.85;;;4.30;;
12867;SDS011;33517;49.866;8.320;2024-03-08T10:22:43;9.23;;;5.40;;
12867;SDS011;33517;49.866;8.320;2024-03-08T10:25:36;9.40;;;5.78;;
12867;SDS011;33517;49.866;8.320;2024-03-08T10:28:28;8.63;;;4.80;;
12867;SDS011;33517;49.866;8.320;2024-03-08T10:31:20;8.98;;;4.95;;
12867;SDS011;33517;49.866;8.320;2024-03-08T10:34:12;10.65;;;5.68;;
12867;SDS011;33517;49.866;8.320;2024-03-08T10:37:04;6.97;;;5.07;;
12867;SDS011;33517;49.866;8.320;2024-03-08T10:39:59;7.38;;;5.30;;
12867;SDS011;33517;49.866;8.320;2024-03-08T10:43:02;8.25;;;5.00;;
12867;SDS011;33517;49.866;8.320;2024-03-08T10:45:57;9.77;;;5.63;;
12867;SDS011;33517;49.866;8.320;2024-03-08T10:49:00;6.65;;;4.53;;
12867;SDS011;33517;49.866;8.320;2024-03-08T10:51:55;8.40;;;5.68;;
12867;SDS011;33517;49.866;8.320;2024-03-08T10:54:49;10.75;;;5.32;;
12867;SDS011;33517;49.866;8.320;2024-03-08T10:57:42;8.40;;;5.22;;
12867;SDS011;33517;49.866;8.320;2024-03-08T11:00:36;9.00;;;5.10;;
12867;SDS011;33517;49.866;8.320;2024-03-08T11:03:46;8.18;;;5.10;;
12867;SDS011;33517;49.866;8.320;2024-03-08T11:06:44;9.23;;;5.50;;
12867;SDS011;33517;49.866;8.320;2024-03-08T11:09:37;6.65;;;4.60;;
12867;SDS011;33517;49.866;8.320;2024-03-08T11:12:29;8.88;;;5.35;;
12867;SDS011;33517;49.866;8.320;2024-03-08T11:15:28;7.57;;;4.97;;
12867;SDS011;33517;49.866;8.320;2024-03-08T11:18:22;7.20;;;4.50;;
12867;SDS011;33517;49.866;8.320;2024-03-08T11:21:15;7.90;;;5.50;;
12867;SDS011;33517;49.866;8.320;2024-03-08T11:24:10;9.00;;;5.43;;
12867;SDS011;33517;49.866;8.320;2024-03-08T11:27:03;9.38;;;5.15;;
12867;SDS011;33517;49.866;8.320;2024-03-08T11:30:00;6.78;;;4.43;;
12867;SDS011;33517;49.866;8.320;2024-03-08T11:33:01;8.02;;;5.35;;
12867;SDS011;33517;49.866;8.320;2024-03-08T11:35:58;10.57;;;4.95;;
12867;SDS011;33517;49.866;8.320;2024-03-08T11:38:56;8.00;;;4.68;;
12867;SDS011;33517;49.866;8.320;2024-03-08T11:41:49;8.60;;;5.13;;
12867;SDS011;33517;49.866;8.320;2024-03-08T11:44:42;9.13;;;5.57;;
12867;SDS011;33517;49.866;8.320;2024-03-08T11:47:34;7.40;;;4.55;;
12867;SDS011;33517;49.866;8.320;2024-03-08T11:50:30;6.78;;;4.45;;
12867;SDS011;33517;49.866;8.320;2024-03-08T11:53:25;7.45;;;5.40;;
12867;SDS011;33517;49.866;8.320;2024-03-08T11:56:16;7.30;;;5.22;;
12867;SDS011;33517;49.866;8.320;2024-03-08T11:59:11;9.00;;;5.18;;
12867;SDS011;33517;49.866;8.320;2024-03-08T12:02:04;8.60;;;4.30;;
12867;SDS011;33517;49.866;8.320;2024-03-08T12:05:00;7.43;;;5.35;;
12867;SDS011;33517;49.866;8.320;2024-03-08T12:07:55;12.13;;;5.20;;
12867;SDS011;33517;49.866;8.320;2024-03-08T12:10:49;8.27;;;4.93;;
12867;SDS011;33517;49.866;8.320;2024-03-08T12:13:41;7.25;;;4.95;;
12867;SDS011;33517;49.866;8.320;2024-03-08T12:16:37;16.08;;;6.05;;
12867;SDS011;33517;49.866;8.320;2024-03-08T12:19:29;7.90;;;5.15;;
12867;SDS011;33517;49.866;8.320;2024-03-08T12:22:24;7.00;;;4.68;;
12867;SDS011;33517;49.866;8.320;2024-03-08T12:25:16;7.30;;;4.60;;
12867;SDS011;33517;49.866;8.320;2024-03-08T12:28:11;7.13;;;4.72;;
12867;SDS011;33517;49.866;8.320;2024-03-08T12:31:06;9.55;;;5.68;;
12867;SDS011;33517;49.866;8.320;2024-03-08T12:34:00;9.27;;;4.90;;
12867;SDS011;33517;49.866;8.320;2024-03-08T12:36:54;9.20;;;5.65;;
12867;SDS011;33517;49.866;8.320;2024-03-08T12:39:46;9.30;;;5.43;;
12867;SDS011;33517;49.866;8.320;2024-03-08T12:42:38;6.47;;;4.45;;
12867;SDS011;33517;49.866;8.320;2024-03-08T12:45:31;9.77;;;4.70;;
12867;SDS011;33517;49.866;8.320;2024-03-08T12:48:23;9.30;;;5.60;;
12867;SDS011;33517;49.866;8.320;2024-03-08T12:51:15;10.00;;;5.35;;
12867;SDS011;33517;49.866;8.320;2024-03-08T12:54:08;11.70;;;5.50;;
12867;SDS011;33517;49.866;8.320;2024-03-08T12:57:00;8.00;;;5.20;;
12867;SDS011;33517;49.866;8.320;2024-03-08T12:59:53;11.25;;;5.35;;
12867;SDS011;33517;49.866;8.320;2024-03-08T13:02:47;7.82;;;5.20;;
12867;SDS011;33517;49.866;8.320;2024-03-08T13:05:40;5.88;;;4.43;;
12867;SDS011;33517;49.866;8.320;2024-03-08T13:08:32;10.10;;;5.53;;
12867;SDS011;33517;49.866;8.320;2024-03-08T13:11:26;8.40;;;5.45;;
12867;SDS011;33517;49.866;8.320;2024-03-08T13:14:18;12.98;;;5.35;;
12867;SDS011;33517;49.866;8.320;2024-03-08T13:17:10;9.23;;;5.38;;
12867;SDS011;33517;49.866;8.320;2024-03-08T13:20:04;9.52;;;6.35;;
12867;SDS011;33517;49.866;8.320;2024-03-08T13:22:59;8.52;;;5.80;;
12867;SDS011;33517;49.866;8.320;2024-03-08T13:25:52;9.13;;;5.63;;
12867;SDS011;33517;49.866;8.320;2024-03-08T13:28:45;9.80;;;4.85;;
12867;SDS011;33517;49.866;8.320;2024-03-08T13:31:39;11.88;;;6.43;;
12867;SDS011;33517;49.866;8.320;2024-03-08T13:34:30;8.55;;;5.18;;
12867;SDS011;33517;49.866;8.320;2024-03-08T13:37:26;6.15;;;4.63;;
12867;SDS011;33517;49.866;8.320;2024-03-08T13:40:19;8.38;;;5.30;;
12867;SDS011;33517;49.866;8.320;2024-03-08T13:43:11;10.20;;;5.80;;
12867;SDS011;33517;49.866;8.320;2024-03-08T13:46:03;10.10;;;5.40;;
12867;SDS011;33517;49.866;8.320;2024-03-08T13:48:57;10.52;;;5.15;;
12867;SDS011;33517;49.866;8.320;2024-03-08T13:51:56;9.75;;;5.78;;
12867;SDS011;33517;49.866;8.320;2024-03-08T13:54:50;6.75;;;5.00;;
12867;SDS011;33517;49.866;8.320;2024-03-08T13:57:42;8.35;;;4.95;;
12867;SDS011;33517;49.866;8.320;2024-03-08T14:00:35;7.78;;;4.88;;
12867;SDS011;33517;49.866;8.320;2024-03-08T14:03:27;7.47;;;4.65;;
12867;SDS011;33517;49.866;8.320;2024-03-08T14:06:19;7.28;;;5.28;;
12867;SDS011;33517;49.866;8.320;2024-03-08T14:09:14;8.68;;;5.35;;
12867;SDS011;33517;49.866;8.320;2024-03-08T14:12:09;7.55;;;5.13;;
12867;SDS011;33517;49.866;8.320;2024-03-08T14:15:01;8.55;;;4.72;;
12867;SDS011;33517;49.866;8.320;2024-03-08T14:17:54;7.22;;;4.65;;
12867;SDS011;33517;49.866;8.320;2024-03-08T14:20:48;10.07;;;5.07;;
12867;SDS011;33517;49.866;8.320;2024-03-08T14:23:41;9.38;;;5.65;;
12867;SDS011;33517;49.866;8.320;2024-03-08T14:26:33;7.30;;;4.90;;
12867;SDS011;33517;49.866;8.320;2024-03-08T14:29:26;6.90;;;4.25;;
12867;SDS011;33517;49.866;8.320;2024-03-08T14:32:21;8.32;;;4.63;;
12867;SDS011;33517;49.866;8.320;2024-03-08T14:35:14;8.13;;;4.28;;
12867;SDS011;33517;49.866;8.320;2024-03-08T14:38:06;8.65;;;4.55;;
12867;SDS011;33517;49.866;8.320;2024-03-08T14:40:58;7.25;;;4.72;;
12867;SDS011;33517;49.866;8.320;2024-03-08T14:43:51;7.93;;;4.70;;
12867;SDS011;33517;49.866;8.320;2024-03-08T14:46:45;13.82;;;5.07;;
12867;SDS011;33517;49.866;8.320;2024-03-08T14:49:38;8.43;;;4.80;;
12867;SDS011;33517;49.866;8.320;2024-03-08T14:52:30;8.63;;;5.32;;
12867;SDS011;33517;49.866;8.320;2024-03-08T14:55:22;5.65;;;3.83;;
12867;SDS011;33517;49.866;8.320;2024-03-08T14:58:14;6.80;;;4.43;;
12867;SDS011;33517;49.866;8.320;2024-03-08T15:01:06;6.28;;;4.10;;
12867;SDS011;33517;49.866;8.320;2024-03-08T15:03:59;5.72;;;3.90;;
12867;SDS011;33517;49.866;8.320;2024-03-08T15:06:58;8.25;;;3.92;;
12867;SDS011;33517;49.866;8.320;2024-03-08T15:09:52;17.10;;;3.72;;
12867;SDS011;33517;49.866;8.320;2024-03-08T15:12:46;5.95;;;3.80;;
12867;SDS011;33517;49.866;8.320;2024-03-08T15:15:38;4.90;;;3.35;;
12867;SDS011;33517;49.866;8.320;2024-03-08T15:18:33;5.35;;;3.35;;
12867;SDS011;33517;49.866;8.320;2024-03-08T15:21:28;4.30;;;2.30;;
12867;SDS011;33517;49.866;8.320;2024-03-08T15:24:19;7.07;;;3.63;;
12867;SDS011;33517;49.866;8.320;2024-03-08T15:27:12;7.18;;;3.80;;
12867;SDS011;33517;49.866;8.320;2024-03-08T15:30:05;5.20;;;3.55;;
12867;SDS011;33517;49.866;8.320;2024-03-08T15:33:03;8.25;;;3.97;;
12867;SDS011;33517;49.866;8.320;2024-03-08T15:36:00;5.07;;;3.75;;
12867;SDS011;33517;49.866;8.320;2024-03-08T15:38:59;3.95;;;2.72;;
12867;SDS011;33517;49.866;8.320;2024-03-08T15:41:51;8.65;;;3.58;;
12867;SDS011;33517;49.866;8.320;2024-03-08T15:44:45;3.28;;;2.83;;
12867;SDS011;33517;49.866;8.320;2024-03-08T15:47:37;3.72;;;2.50;;
12867;SDS011;33517;49.866;8.320;2024-03-08T15:50:28;4.30;;;3.42;;
12867;SDS011;33517;49.866;8.320;2024-03-08T15:53:22;4.38;;;2.53;;
12867;SDS011;33517;49.866;8.320;2024-03-08T15:56:15;5.90;;;3.13;;
12867;SDS011;33517;49.866;8.320;2024-03-08T15:59:08;5.22;;;2.70;;
12867;SDS011;33517;49.866;8.320;2024-03-08T16:02:01;5.97;;;2.83;;
12867;SDS011;33517;49.866;8.320;2024-03-08T16:04:54;5.18;;;3.00;;
12867;SDS011;33517;49.866;8.320;2024-03-08T16:07:46;6.60;;;2.97;;
12867;SDS011;33517;49.866;8.320;2024-03-08T16:10:38;4.30;;;2.95;;
12867;SDS011;33517;49.866;8.320;2024-03-08T16:13:32;3.30;;;3.00;;
12867;SDS011;33517;49.866;8.320;2024-03-08T16:16:28;7.97;;;3.30;;
12867;SDS011;33517;49.866;8.320;2024-03-08T16:19:20;3.40;;;2.33;;
12867;SDS011;33517;49.866;8.320;2024-03-08T16:22:13;5.10;;;2.63;;
12867;SDS011;33517;49.866;8.320;2024-03-08T16:25:05;3.15;;;2.42;;
12867;SDS011;33517;49.866;8.320;2024-03-08T16:28:02;2.60;;;1.92;;
12867;SDS011;33517;49.866;8.320;2024-03-08T16:30:56;2.65;;;2.42;;
12867;SDS011;33517;49.866;8.320;2024-03-08T16:33:49;6.18;;;3.65;;
12867;SDS011;33517;49.866;8.320;2024-03-08T16:36:40;3.35;;;1.95;;
12867;SDS011;33517;49.866;8.320;2024-03-08T16:39:32;6.40;;;2.17;;
12867;SDS011;33517;49.866;8.320;2024-03-08T16:42:25;4.47;;;3.08;;
12867;SDS011;33517;49.866;8.320;2024-03-08T16:45:17;5.55;;;3.28;;
12867;SDS011;33517;49.866;8.320;2024-03-08T16:48:11;3.08;;;2.13;;
12867;SDS011;33517;49.866;8.320;2024-03-08T16:51:03;4.65;;;2.83;;
12867;SDS011;33517;49.866;8.320;2024-03-08T16:53:58;4.50;;;2.55;;
12867;SDS011;33517;49.866;8.320;2024-03-08T16:56:52;3.40;;;2.60;;
12867;SDS011;33517;49.866;8.320;2024-03-08T16:59:44;2.45;;;2.15;;
12867;SDS011;33517;49.866;8.320;2024-03-08T17:02:36;3.00;;;2.10;;
12867;SDS011;33517;49.866;8.320;2024-03-08T17:05:29;8.95;;;2.28;;
12867;SDS011;33517;49.866;8.320;2024-03-08T17:08:22;2.58;;;2.13;;
12867;SDS011;33517;49.866;8.320;2024-03-08T17:11:14;3.35;;;2.28;;
12867;SDS011;33517;49.866;8.320;2024-03-08T17:14:06;3.30;;;2.28;;
12867;SDS011;33517;49.866;8.320;2024-03-08T17:16:57;5.05;;;3.10;;
12867;SDS011;33517;49.866;8.320;2024-03-08T17:19:49;4.55;;;2.28;;
12867;SDS011;33517;49.866;8.320;2024-03-08T17:22:43;3.65;;;2.33;;